sensor_id;sensor_type;location;lat;lon;timestamp;P1;durP1;ratioP1;P2;durP2;ratioP2
65073;SDS011;52218;51.224;-2.328;2022-12-18T00:00:04;20.33;;;13.90;;
65073;SDS011;52218;51.224;-2.328;2022-12-18T00:03:47;19.42;;;12.82;;
65073;SDS011;52218;51.224;-2.328;2022-12-18T00:07:30;20.77;;;12.88;;
65073;SDS011;52218;51.224;-2.328;2022-12-18T00:11:13;20.73;;;12.35;;
65073;SDS011;52218;51.224;-2.328;2022-12-18T00:14:57;17.93;;;12.17;;
65073;SDS011;52218;51.224;-2.328;2022-12-18T00:18:40;17.83;;;11.43;;
65073;SDS011;52218;51.224;-2.328;2022-12-18T00:22:22;17.08;;;10.95;;
65073;SDS011;52218;51.224;-2.328;2022-12-18T00:26:06;15.63;;;10.25;;
65073;SDS011;52218;51.224;-2.328;2022-12-18T00:29:51;18.60;;;10.40;;
65073;SDS011;52218;51.224;-2.328;2022-12-18T00:33:33;14.85;;;9.25;;
65073;SDS011;52218;51.224;-2.328;2022-12-18T00:37:16;10.40;;;7.57;;
65073;SDS011;52218;51.224;-2.328;2022-12-18T00:41:00;9.25;;;5.72;;
65073;SDS011;52218;51.224;-2.328;2022-12-18T00:44:43;6.43;;;4.40;;
65073;SDS011;52218;51.224;-2.328;2022-12-18T00:48:25;7.05;;;3.90;;
65073;SDS011;52218;51.224;-2.328;2022-12-18T00:52:07;5.60;;;3.60;;
65073;SDS011;52218;51.224;-2.328;2022-12-18T00:55:49;6.45;;;3.47;;
65073;SDS011;52218;51.224;-2.328;2022-12-18T00:59:31;6.35;;;3.58;;
65073;SDS011;52218;51.224;-2.328;2022-12-18T01:03:13;5.88;;;3.47;;
65073;SDS011;52218;51.224;-2.328;2022-12-18T01:06:55;6.05;;;3.70;;
65073;SDS011;52218;51.224;-2.328;2022-12-18T01:10:40;5.30;;;3.28;;
65073;SDS011;52218;51.224;-2.328;2022-12-18T01:14:22;5.53;;;3.60;;
65073;SDS011;52218;51.224;-2.328;2022-12-18T01:18:04;4.78;;;3.38;;
65073;SDS011;52218;51.224;-2.328;2022-12-18T01:21:47;7.72;;;3.30;;
65073;SDS011;52218;51.224;-2.328;2022-12-18T01:25:29;5.57;;;3.25;;
65073;SDS011;52218;51.224;-2.328;2022-12-18T01:29:11;6.55;;;3.60;;
65073;SDS011;52218;51.224;-2.328;2022-12-18T01:32:53;6.78;;;3.70;;
65073;SDS011;52218;51.224;-2.328;2022-12-18T01:36:36;6.05;;;3.10;;
65073;SDS011;52218;51.224;-2.328;2022-12-18T01:40:20;7.60;;;3.47;;
65073;SDS011;52218;51.224;-2.328;2022-12-18T01:44:46;6.47;;;3.25;;
65073;SDS011;52218;51.224;-2.328;2022-12-18T01:48:22;8.02;;;3.80;;
65073;SDS011;52218;51.224;-2.328;2022-12-18T01:52:04;4.75;;;2.92;;
65073;SDS011;52218;51.224;-2.328;2022-12-18T01:55:48;6.68;;;3.53;;
65073;SDS011;52218;51.224;-2.328;2022-12-18T01:59:33;4.50;;;3.13;;
65073;SDS011;52218;51.224;-2.328;2022-12-18T02:03:17;5.97;;;3.88;;
65073;SDS011;52218;51.224;-2.328;2022-12-18T02:07:02;6.72;;;3.95;;
65073;SDS011;52218;51.224;-2.328;2022-12-18T02:19:04;5.95;;;3.90;;
65073;SDS011;52218;51.224;-2.328;2022-12-18T02:27:05;4.55;;;3.08;;
65073;SDS011;52218;51.224;-2.328;2022-12-18T02:30:49;6.90;;;3.22;;
65073;SDS011;52218;51.224;-2.328;2022-12-18T02:34:34;6.65;;;3.50;;
65073;SDS011;52218;51.224;-2.328;2022-12-18T02:38:20;5.07;;;3.45;;
65073;SDS011;52218;51.224;-2.328;2022-12-18T02:42:02;4.43;;;3.05;;
65073;SDS011;52218;51.224;-2.328;2022-12-18T02:45:53;4.80;;;3.47;;
65073;SDS011;52218;51.224;-2.328;2022-12-18T02:53:43;7.68;;;4.07;;
65073;SDS011;52218;51.224;-2.328;2022-12-18T02:57:37;6.55;;;3.50;;
65073;SDS011;52218;51.224;-2.328;2022-12-18T03:05:27;7.80;;;4.07;;
65073;SDS011;52218;51.224;-2.328;2022-12-18T03:09:15;6.07;;;3.55;;
65073;SDS011;52218;51.224;-2.328;2022-12-18T03:13:23;6.53;;;3.97;;
65073;SDS011;52218;51.224;-2.328;2022-12-18T03:17:13;6.32;;;3.88;;
65073;SDS011;52218;51.224;-2.328;2022-12-18T03:21:00;7.45;;;3.67;;
65073;SDS011;52218;51.224;-2.328;2022-12-18T03:24:47;8.02;;;3.95;;
65073;SDS011;52218;51.224;-2.328;2022-12-18T03:28:30;6.82;;;3.80;;
65073;SDS011;52218;51.224;-2.328;2022-12-18T03:32:24;7.72;;;4.05;;
65073;SDS011;52218;51.224;-2.328;2022-12-18T03:36:12;8.38;;;3.60;;
65073;SDS011;52218;51.224;-2.328;2022-12-18T03:39:54;6.10;;;4.00;;
65073;SDS011;52218;51.224;-2.328;2022-12-18T03:51:26;7.68;;;3.95;;
65073;SDS011;52218;51.224;-2.328;2022-12-18T03:55:10;6.53;;;4.10;;
65073;SDS011;52218;51.224;-2.328;2022-12-18T03:58:53;8.35;;;4.18;;
65073;SDS011;52218;51.224;-2.328;2022-12-18T04:02:37;6.20;;;4.10;;
65073;SDS011;52218;51.224;-2.328;2022-12-18T04:06:24;5.97;;;4.22;;
65073;SDS011;52218;51.224;-2.328;2022-12-18T04:10:07;6.03;;;4.30;;
65073;SDS011;52218;51.224;-2.328;2022-12-18T04:13:50;6.10;;;4.20;;
65073;SDS011;52218;51.224;-2.328;2022-12-18T04:21:23;6.15;;;4.00;;
65073;SDS011;52218;51.224;-2.328;2022-12-18T04:25:05;7.53;;;4.55;;
65073;SDS011;52218;51.224;-2.328;2022-12-18T04:28:48;9.02;;;4.80;;
65073;SDS011;52218;51.224;-2.328;2022-12-18T04:32:29;9.32;;;5.15;;
65073;SDS011;52218;51.224;-2.328;2022-12-18T04:36:11;7.88;;;4.32;;
65073;SDS011;52218;51.224;-2.328;2022-12-18T04:39:53;7.80;;;4.38;;
65073;SDS011;52218;51.224;-2.328;2022-12-18T04:43:35;7.93;;;4.95;;
65073;SDS011;52218;51.224;-2.328;2022-12-18T04:47:18;6.07;;;3.95;;
65073;SDS011;52218;51.224;-2.328;2022-12-18T04:51:00;7.45;;;4.40;;
65073;SDS011;52218;51.224;-2.328;2022-12-18T04:54:42;8.30;;;4.60;;
65073;SDS011;52218;51.224;-2.328;2022-12-18T04:58:24;8.40;;;4.32;;
65073;SDS011;52218;51.224;-2.328;2022-12-18T05:02:06;8.68;;;4.35;;
65073;SDS011;52218;51.224;-2.328;2022-12-18T05:05:51;6.22;;;4.35;;
65073;SDS011;52218;51.224;-2.328;2022-12-18T05:09:33;6.22;;;4.03;;
65073;SDS011;52218;51.224;-2.328;2022-12-18T05:13:16;8.48;;;4.15;;
65073;SDS011;52218;51.224;-2.328;2022-12-18T05:16:57;6.85;;;4.28;;
65073;SDS011;52218;51.224;-2.328;2022-12-18T05:20:41;7.57;;;4.35;;
65073;SDS011;52218;51.224;-2.328;2022-12-18T05:24:23;8.48;;;4.55;;
65073;SDS011;52218;51.224;-2.328;2022-12-18T05:28:05;8.25;;;4.70;;
65073;SDS011;52218;51.224;-2.328;2022-12-18T05:31:47;8.63;;;5.05;;
65073;SDS011;52218;51.224;-2.328;2022-12-18T05:35:29;12.15;;;5.57;;
65073;SDS011;52218;51.224;-2.328;2022-12-18T05:39:11;9.32;;;5.00;;
65073;SDS011;52218;51.224;-2.328;2022-12-18T05:42:53;11.68;;;5.85;;
65073;SDS011;52218;51.224;-2.328;2022-12-18T05:46:35;9.75;;;5.07;;
65073;SDS011;52218;51.224;-2.328;2022-12-18T05:50:17;8.80;;;5.60;;
65073;SDS011;52218;51.224;-2.328;2022-12-18T05:53:59;10.98;;;5.50;;
65073;SDS011;52218;51.224;-2.328;2022-12-18T05:57:41;11.70;;;5.40;;
65073;SDS011;52218;51.224;-2.328;2022-12-18T06:01:24;9.48;;;5.35;;
65073;SDS011;52218;51.224;-2.328;2022-12-18T06:05:07;11.95;;;5.30;;
65073;SDS011;52218;51.224;-2.328;2022-12-18T06:08:50;9.65;;;5.82;;
65073;SDS011;52218;51.224;-2.328;2022-12-18T06:12:33;10.57;;;5.75;;
65073;SDS011;52218;51.224;-2.328;2022-12-18T06:16:14;8.13;;;5.63;;
65073;SDS011;52218;51.224;-2.328;2022-12-18T06:19:57;8.82;;;6.28;;
65073;SDS011;52218;51.224;-2.328;2022-12-18T06:23:39;10.05;;;5.57;;
65073;SDS011;52218;51.224;-2.328;2022-12-18T06:27:22;9.90;;;6.13;;
65073;SDS011;52218;51.224;-2.328;2022-12-18T06:31:04;9.13;;;5.88;;
65073;SDS011;52218;51.224;-2.328;2022-12-18T06:34:46;8.05;;;5.20;;
65073;SDS011;52218;51.224;-2.328;2022-12-18T06:38:28;7.70;;;5.22;;
65073;SDS011;52218;51.224;-2.328;2022-12-18T06:42:10;8.27;;;4.90;;
65073;SDS011;52218;51.224;-2.328;2022-12-18T06:45:57;8.32;;;4.97;;
65073;SDS011;52218;51.224;-2.328;2022-12-18T06:49:40;7.78;;;5.10;;
65073;SDS011;52218;51.224;-2.328;2022-12-18T06:53:23;9.70;;;5.57;;
65073;SDS011;52218;51.224;-2.328;2022-12-18T06:57:05;9.32;;;5.82;;
65073;SDS011;52218;51.224;-2.328;2022-12-18T07:00:47;9.48;;;5.03;;
65073;SDS011;52218;51.224;-2.328;2022-12-18T07:04:29;8.55;;;5.68;;
65073;SDS011;52218;51.224;-2.328;2022-12-18T07:08:11;9.93;;;5.03;;
65073;SDS011;52218;51.224;-2.328;2022-12-18T07:11:53;7.93;;;4.88;;
65073;SDS011;52218;51.224;-2.328;2022-12-18T07:15:36;9.95;;;5.13;;
65073;SDS011;52218;51.224;-2.328;2022-12-18T07:19:18;7.63;;;4.75;;
65073;SDS011;52218;51.224;-2.328;2022-12-18T07:23:01;8.13;;;4.45;;
65073;SDS011;52218;51.224;-2.328;2022-12-18T07:26:47;7.43;;;4.97;;
65073;SDS011;52218;51.224;-2.328;2022-12-18T07:30:29;7.60;;;5.10;;
65073;SDS011;52218;51.224;-2.328;2022-12-18T07:34:12;6.35;;;4.65;;
65073;SDS011;52218;51.224;-2.328;2022-12-18T07:37:54;8.80;;;4.50;;
65073;SDS011;52218;51.224;-2.328;2022-12-18T07:41:36;8.40;;;4.35;;
65073;SDS011;52218;51.224;-2.328;2022-12-18T07:45:26;7.70;;;4.70;;
65073;SDS011;52218;51.224;-2.328;2022-12-18T07:49:08;6.05;;;4.43;;
65073;SDS011;52218;51.224;-2.328;2022-12-18T07:52:50;7.30;;;4.32;;
65073;SDS011;52218;51.224;-2.328;2022-12-18T07:56:32;6.93;;;4.45;;
65073;SDS011;52218;51.224;-2.328;2022-12-18T08:00:14;7.30;;;4.45;;
65073;SDS011;52218;51.224;-2.328;2022-12-18T08:03:57;7.45;;;4.20;;
65073;SDS011;52218;51.224;-2.328;2022-12-18T08:07:40;6.47;;;3.70;;
65073;SDS011;52218;51.224;-2.328;2022-12-18T08:11:22;7.38;;;4.40;;
65073;SDS011;52218;51.224;-2.328;2022-12-18T08:15:06;7.05;;;3.83;;
65073;SDS011;52218;51.224;-2.328;2022-12-18T08:18:48;6.95;;;3.75;;
65073;SDS011;52218;51.224;-2.328;2022-12-18T08:22:33;6.72;;;3.33;;
65073;SDS011;52218;51.224;-2.328;2022-12-18T08:26:17;5.53;;;3.95;;
65073;SDS011;52218;51.224;-2.328;2022-12-18T08:30:01;6.05;;;3.75;;
65073;SDS011;52218;51.224;-2.328;2022-12-18T08:33:44;6.95;;;4.22;;
65073;SDS011;52218;51.224;-2.328;2022-12-18T08:37:27;5.93;;;4.13;;
65073;SDS011;52218;51.224;-2.328;2022-12-18T08:41:10;10.40;;;4.57;;
65073;SDS011;52218;51.224;-2.328;2022-12-18T08:44:54;7.20;;;4.20;;
65073;SDS011;52218;51.224;-2.328;2022-12-18T08:48:36;7.45;;;3.92;;
65073;SDS011;52218;51.224;-2.328;2022-12-18T08:52:18;5.53;;;3.83;;
65073;SDS011;52218;51.224;-2.328;2022-12-18T08:56:00;6.90;;;3.97;;
65073;SDS011;52218;51.224;-2.328;2022-12-18T08:59:41;8.52;;;4.53;;
65073;SDS011;52218;51.224;-2.328;2022-12-18T09:03:23;6.07;;;4.13;;
65073;SDS011;52218;51.224;-2.328;2022-12-18T09:07:05;8.38;;;5.15;;
65073;SDS011;52218;51.224;-2.328;2022-12-18T09:10:48;9.25;;;4.70;;
65073;SDS011;52218;51.224;-2.328;2022-12-18T09:14:31;7.57;;;4.93;;
65073;SDS011;52218;51.224;-2.328;2022-12-18T09:18:13;7.20;;;4.30;;
65073;SDS011;52218;51.224;-2.328;2022-12-18T09:21:56;6.20;;;4.63;;
65073;SDS011;52218;51.224;-2.328;2022-12-18T09:25:38;8.77;;;4.65;;
65073;SDS011;52218;51.224;-2.328;2022-12-18T09:29:21;10.05;;;4.47;;
65073;SDS011;52218;51.224;-2.328;2022-12-18T09:33:03;7.38;;;4.45;;
65073;SDS011;52218;51.224;-2.328;2022-12-18T09:36:47;7.10;;;4.78;;
65073;SDS011;52218;51.224;-2.328;2022-12-18T09:40:32;7.10;;;4.35;;
65073;SDS011;52218;51.224;-2.328;2022-12-18T09:44:36;7.78;;;4.88;;
65073;SDS011;52218;51.224;-2.328;2022-12-18T09:48:27;6.88;;;4.50;;
65073;SDS011;52218;51.224;-2.328;2022-12-18T09:52:19;8.15;;;5.18;;
65073;SDS011;52218;51.224;-2.328;2022-12-18T09:56:23;9.35;;;5.13;;
65073;SDS011;52218;51.224;-2.328;2022-12-18T10:00:16;8.73;;;5.43;;
65073;SDS011;52218;51.224;-2.328;2022-12-18T10:04:00;8.88;;;5.55;;
65073;SDS011;52218;51.224;-2.328;2022-12-18T10:11:54;7.88;;;5.57;;
65073;SDS011;52218;51.224;-2.328;2022-12-18T10:15:55;8.65;;;5.20;;
65073;SDS011;52218;51.224;-2.328;2022-12-18T10:19:48;9.18;;;5.43;;
65073;SDS011;52218;51.224;-2.328;2022-12-18T10:27:53;10.23;;;6.07;;
65073;SDS011;52218;51.224;-2.328;2022-12-18T10:31:39;6.88;;;5.13;;
65073;SDS011;52218;51.224;-2.328;2022-12-18T10:35:25;10.05;;;5.57;;
65073;SDS011;52218;51.224;-2.328;2022-12-18T10:39:21;8.32;;;5.88;;
65073;SDS011;52218;51.224;-2.328;2022-12-18T10:46:50;9.48;;;6.00;;
65073;SDS011;52218;51.224;-2.328;2022-12-18T10:50:39;7.43;;;5.63;;
65073;SDS011;52218;51.224;-2.328;2022-12-18T10:54:45;8.63;;;6.15;;
65073;SDS011;52218;51.224;-2.328;2022-12-18T10:58:33;8.80;;;6.30;;
65073;SDS011;52218;51.224;-2.328;2022-12-18T11:06:18;10.75;;;6.63;;
65073;SDS011;52218;51.224;-2.328;2022-12-18T11:10:15;9.07;;;6.65;;
65073;SDS011;52218;51.224;-2.328;2022-12-18T11:14:02;10.25;;;6.38;;
65073;SDS011;52218;51.224;-2.328;2022-12-18T11:17:53;10.00;;;6.57;;
65073;SDS011;52218;51.224;-2.328;2022-12-18T11:21:39;8.18;;;6.18;;
65073;SDS011;52218;51.224;-2.328;2022-12-18T11:25:23;7.65;;;5.60;;
65073;SDS011;52218;51.224;-2.328;2022-12-18T11:29:16;10.60;;;5.72;;
65073;SDS011;52218;51.224;-2.328;2022-12-18T11:33:11;8.67;;;5.40;;
65073;SDS011;52218;51.224;-2.328;2022-12-18T11:36:59;7.63;;;5.72;;
65073;SDS011;52218;51.224;-2.328;2022-12-18T11:40:45;7.70;;;5.22;;
65073;SDS011;52218;51.224;-2.328;2022-12-18T11:44:41;7.57;;;5.30;;
65073;SDS011;52218;51.224;-2.328;2022-12-18T11:48:33;7.00;;;4.53;;
65073;SDS011;52218;51.224;-2.328;2022-12-18T11:52:24;7.43;;;5.13;;
65073;SDS011;52218;51.224;-2.328;2022-12-18T11:56:29;6.30;;;4.73;;
65073;SDS011;52218;51.224;-2.328;2022-12-18T12:00:15;6.97;;;4.28;;
65073;SDS011;52218;51.224;-2.328;2022-12-18T12:37:20;2.90;;;1.90;;
65073;SDS011;52218;51.224;-2.328;2022-12-18T12:41:12;1.90;;;1.60;;
65073;SDS011;52218;51.224;-2.328;2022-12-18T12:49:34;2.50;;;1.63;;
65073;SDS011;52218;51.224;-2.328;2022-12-18T12:53:22;1.55;;;1.27;;
65073;SDS011;52218;51.224;-2.328;2022-12-18T12:57:20;1.90;;;1.20;;
65073;SDS011;52218;51.224;-2.328;2022-12-18T13:05:16;1.40;;;1.00;;
65073;SDS011;52218;51.224;-2.328;2022-12-18T13:09:15;1.77;;;1.00;;
65073;SDS011;52218;51.224;-2.328;2022-12-18T13:13:10;1.30;;;0.90;;
65073;SDS011;52218;51.224;-2.328;2022-12-18T13:17:36;1.08;;;0.77;;
65073;SDS011;52218;51.224;-2.328;2022-12-18T13:29:13;1.40;;;0.80;;
65073;SDS011;52218;51.224;-2.328;2022-12-18T13:44:59;1.15;;;0.70;;
65073;SDS011;52218;51.224;-2.328;2022-12-18T13:48:47;1.00;;;0.47;;
65073;SDS011;52218;51.224;-2.328;2022-12-18T13:52:38;1.00;;;0.50;;
65073;SDS011;52218;51.224;-2.328;2022-12-18T13:56:22;1.10;;;0.68;;
65073;SDS011;52218;51.224;-2.328;2022-12-18T14:04:37;0.90;;;0.60;;
65073;SDS011;52218;51.224;-2.328;2022-12-18T14:08:16;0.80;;;0.60;;
65073;SDS011;52218;51.224;-2.328;2022-12-18T14:12:01;0.80;;;0.40;;
65073;SDS011;52218;51.224;-2.328;2022-12-18T14:16:03;0.90;;;0.60;;
65073;SDS011;52218;51.224;-2.328;2022-12-18T14:19:48;1.10;;;0.50;;
65073;SDS011;52218;51.224;-2.328;2022-12-18T14:31:03;1.92;;;0.52;;
65073;SDS011;52218;51.224;-2.328;2022-12-18T14:34:55;0.70;;;0.50;;
65073;SDS011;52218;51.224;-2.328;2022-12-18T14:38:37;1.13;;;0.43;;
65073;SDS011;52218;51.224;-2.328;2022-12-18T14:42:21;0.55;;;0.35;;
65073;SDS011;52218;51.224;-2.328;2022-12-18T14:46:03;1.30;;;0.50;;
65073;SDS011;52218;51.224;-2.328;2022-12-18T14:49:47;0.60;;;0.40;;
65073;SDS011;52218;51.224;-2.328;2022-12-18T14:53:33;1.80;;;0.60;;
65073;SDS011;52218;51.224;-2.328;2022-12-18T14:57:36;1.88;;;0.50;;
65073;SDS011;52218;51.224;-2.328;2022-12-18T15:05:19;0.60;;;0.40;;
65073;SDS011;52218;51.224;-2.328;2022-12-18T15:09:21;0.82;;;0.40;;
65073;SDS011;52218;51.224;-2.328;2022-12-18T15:16:54;0.40;;;0.30;;
65073;SDS011;52218;51.224;-2.328;2022-12-18T15:24:31;0.93;;;0.60;;
65073;SDS011;52218;51.224;-2.328;2022-12-18T15:28:22;1.55;;;0.55;;
65073;SDS011;52218;51.224;-2.328;2022-12-18T15:32:18;0.80;;;0.40;;
65073;SDS011;52218;51.224;-2.328;2022-12-18T15:36:04;0.70;;;0.45;;
65073;SDS011;52218;51.224;-2.328;2022-12-18T15:43:31;0.50;;;0.30;;
65073;SDS011;52218;51.224;-2.328;2022-12-18T15:47:17;2.47;;;0.40;;
65073;SDS011;52218;51.224;-2.328;2022-12-18T15:50:59;0.98;;;0.40;;
65073;SDS011;52218;51.224;-2.328;2022-12-18T15:54:42;1.73;;;0.50;;
65073;SDS011;52218;51.224;-2.328;2022-12-18T15:58:42;1.13;;;0.38;;
65073;SDS011;52218;51.224;-2.328;2022-12-18T16:02:25;1.40;;;0.60;;
65073;SDS011;52218;51.224;-2.328;2022-12-18T16:06:08;1.55;;;0.52;;
65073;SDS011;52218;51.224;-2.328;2022-12-18T16:09:51;0.70;;;0.43;;
65073;SDS011;52218;51.224;-2.328;2022-12-18T16:13:33;0.95;;;0.40;;
65073;SDS011;52218;51.224;-2.328;2022-12-18T16:17:15;0.85;;;0.57;;
65073;SDS011;52218;51.224;-2.328;2022-12-18T16:20:57;1.33;;;0.60;;
65073;SDS011;52218;51.224;-2.328;2022-12-18T16:24:40;1.48;;;0.60;;
65073;SDS011;52218;51.224;-2.328;2022-12-18T16:28:23;1.30;;;0.63;;
65073;SDS011;52218;51.224;-2.328;2022-12-18T16:32:05;2.78;;;0.68;;
65073;SDS011;52218;51.224;-2.328;2022-12-18T16:35:51;0.95;;;0.50;;
65073;SDS011;52218;51.224;-2.328;2022-12-18T16:39:33;1.48;;;0.50;;
65073;SDS011;52218;51.224;-2.328;2022-12-18T16:43:16;1.08;;;0.70;;
65073;SDS011;52218;51.224;-2.328;2022-12-18T16:46:58;1.55;;;0.70;;
65073;SDS011;52218;51.224;-2.328;2022-12-18T16:50:43;3.88;;;0.73;;
65073;SDS011;52218;51.224;-2.328;2022-12-18T16:54:25;1.33;;;0.68;;
65073;SDS011;52218;51.224;-2.328;2022-12-18T16:58:10;1.77;;;0.70;;
65073;SDS011;52218;51.224;-2.328;2022-12-18T17:01:52;2.08;;;0.80;;
65073;SDS011;52218;51.224;-2.328;2022-12-18T17:05:36;0.90;;;0.60;;
65073;SDS011;52218;51.224;-2.328;2022-12-18T17:09:18;1.40;;;0.80;;
65073;SDS011;52218;51.224;-2.328;2022-12-18T17:13:06;2.53;;;1.10;;
65073;SDS011;52218;51.224;-2.328;2022-12-18T17:16:48;2.17;;;1.00;;
65073;SDS011;52218;51.224;-2.328;2022-12-18T17:20:51;2.33;;;1.25;;
65073;SDS011;52218;51.224;-2.328;2022-12-18T17:24:32;3.17;;;1.20;;
65073;SDS011;52218;51.224;-2.328;2022-12-18T17:28:15;1.40;;;0.93;;
65073;SDS011;52218;51.224;-2.328;2022-12-18T17:31:57;2.85;;;1.00;;
65073;SDS011;52218;51.224;-2.328;2022-12-18T17:35:40;2.45;;;0.80;;
65073;SDS011;52218;51.224;-2.328;2022-12-18T17:39:22;2.13;;;1.10;;
65073;SDS011;52218;51.224;-2.328;2022-12-18T17:43:05;3.17;;;0.93;;
65073;SDS011;52218;51.224;-2.328;2022-12-18T17:46:50;1.40;;;0.70;;
65073;SDS011;52218;51.224;-2.328;2022-12-18T17:50:33;1.65;;;0.90;;
65073;SDS011;52218;51.224;-2.328;2022-12-18T17:54:15;2.10;;;1.00;;
65073;SDS011;52218;51.224;-2.328;2022-12-18T17:57:57;2.03;;;0.98;;
65073;SDS011;52218;51.224;-2.328;2022-12-18T18:01:39;2.47;;;1.00;;
65073;SDS011;52218;51.224;-2.328;2022-12-18T18:05:25;1.90;;;0.70;;
65073;SDS011;52218;51.224;-2.328;2022-12-18T18:09:07;2.15;;;0.80;;
65073;SDS011;52218;51.224;-2.328;2022-12-18T18:12:57;2.58;;;0.90;;
65073;SDS011;52218;51.224;-2.328;2022-12-18T18:16:57;1.75;;;0.80;;
65073;SDS011;52218;51.224;-2.328;2022-12-18T18:20:45;1.60;;;0.88;;
65073;SDS011;52218;51.224;-2.328;2022-12-18T18:24:27;2.47;;;0.73;;
65073;SDS011;52218;51.224;-2.328;2022-12-18T18:28:09;2.67;;;1.00;;
65073;SDS011;52218;51.224;-2.328;2022-12-18T18:31:51;2.33;;;0.93;;
65073;SDS011;52218;51.224;-2.328;2022-12-18T18:35:33;3.00;;;0.98;;
65073;SDS011;52218;51.224;-2.328;2022-12-18T18:39:35;2.30;;;0.80;;
65073;SDS011;52218;51.224;-2.328;2022-12-18T18:43:17;2.15;;;0.75;;
65073;SDS011;52218;51.224;-2.328;2022-12-18T18:46:59;1.38;;;0.50;;
65073;SDS011;52218;51.224;-2.328;2022-12-18T18:50:42;2.00;;;0.60;;
65073;SDS011;52218;51.224;-2.328;2022-12-18T18:54:26;2.05;;;0.50;;
65073;SDS011;52218;51.224;-2.328;2022-12-18T18:58:08;2.83;;;0.65;;
65073;SDS011;52218;51.224;-2.328;2022-12-18T19:01:50;1.88;;;0.65;;
65073;SDS011;52218;51.224;-2.328;2022-12-18T19:05:33;1.50;;;0.70;;
65073;SDS011;52218;51.224;-2.328;2022-12-18T19:09:15;2.05;;;0.70;;
65073;SDS011;52218;51.224;-2.328;2022-12-18T19:12:57;1.77;;;0.70;;
65073;SDS011;52218;51.224;-2.328;2022-12-18T19:16:58;1.05;;;0.63;;
65073;SDS011;52218;51.224;-2.328;2022-12-18T19:20:41;1.25;;;0.65;;
65073;SDS011;52218;51.224;-2.328;2022-12-18T19:24:24;1.30;;;0.57;;
65073;SDS011;52218;51.224;-2.328;2022-12-18T19:28:06;1.08;;;0.50;;
65073;SDS011;52218;51.224;-2.328;2022-12-18T19:32:02;0.90;;;0.50;;
65073;SDS011;52218;51.224;-2.328;2022-12-18T19:35:45;1.92;;;0.60;;
65073;SDS011;52218;51.224;-2.328;2022-12-18T19:39:27;0.93;;;0.47;;
65073;SDS011;52218;51.224;-2.328;2022-12-18T19:43:10;2.13;;;0.60;;
65073;SDS011;52218;51.224;-2.328;2022-12-18T19:46:52;1.63;;;0.52;;
65073;SDS011;52218;51.224;-2.328;2022-12-18T19:50:39;1.10;;;0.38;;
65073;SDS011;52218;51.224;-2.328;2022-12-18T19:54:22;1.27;;;0.40;;
65073;SDS011;52218;51.224;-2.328;2022-12-18T19:58:06;1.95;;;0.90;;
65073;SDS011;52218;51.224;-2.328;2022-12-18T20:01:48;3.17;;;0.82;;
65073;SDS011;52218;51.224;-2.328;2022-12-18T20:05:31;2.35;;;0.65;;
65073;SDS011;52218;51.224;-2.328;2022-12-18T20:09:13;1.27;;;0.40;;
65073;SDS011;52218;51.224;-2.328;2022-12-18T20:12:55;2.33;;;0.50;;
65073;SDS011;52218;51.224;-2.328;2022-12-18T20:16:38;2.83;;;0.60;;
65073;SDS011;52218;51.224;-2.328;2022-12-18T20:20:21;2.28;;;0.60;;
65073;SDS011;52218;51.224;-2.328;2022-12-18T20:24:03;1.05;;;0.60;;
65073;SDS011;52218;51.224;-2.328;2022-12-18T20:27:45;0.95;;;0.50;;
65073;SDS011;52218;51.224;-2.328;2022-12-18T20:31:27;0.65;;;0.30;;
65073;SDS011;52218;51.224;-2.328;2022-12-18T20:35:09;0.73;;;0.30;;
65073;SDS011;52218;51.224;-2.328;2022-12-18T20:38:52;1.13;;;0.50;;
65073;SDS011;52218;51.224;-2.328;2022-12-18T20:42:39;0.70;;;0.30;;
65073;SDS011;52218;51.224;-2.328;2022-12-18T20:46:22;1.20;;;0.60;;
65073;SDS011;52218;51.224;-2.328;2022-12-18T20:50:05;0.77;;;0.30;;
65073;SDS011;52218;51.224;-2.328;2022-12-18T20:53:47;1.00;;;0.40;;
65073;SDS011;52218;51.224;-2.328;2022-12-18T20:57:29;3.72;;;0.40;;
65073;SDS011;52218;51.224;-2.328;2022-12-18T21:01:12;0.93;;;0.30;;
65073;SDS011;52218;51.224;-2.328;2022-12-18T21:04:56;1.48;;;0.65;;
65073;SDS011;52218;51.224;-2.328;2022-12-18T21:08:38;0.77;;;0.47;;
65073;SDS011;52218;51.224;-2.328;2022-12-18T21:12:20;1.58;;;0.43;;
65073;SDS011;52218;51.224;-2.328;2022-12-18T21:16:39;1.65;;;0.75;;
65073;SDS011;52218;51.224;-2.328;2022-12-18T21:20:24;2.42;;;0.82;;
65073;SDS011;52218;51.224;-2.328;2022-12-18T21:24:06;2.28;;;0.85;;
65073;SDS011;52218;51.224;-2.328;2022-12-18T21:27:48;3.28;;;0.70;;
65073;SDS011;52218;51.224;-2.328;2022-12-18T21:31:32;3.63;;;1.08;;
65073;SDS011;52218;51.224;-2.328;2022-12-18T21:35:15;2.10;;;1.02;;
65073;SDS011;52218;51.224;-2.328;2022-12-18T21:39:00;3.33;;;1.08;;
65073;SDS011;52218;51.224;-2.328;2022-12-18T21:42:42;5.90;;;1.27;;
65073;SDS011;52218;51.224;-2.328;2022-12-18T21:46:44;4.85;;;1.30;;
65073;SDS011;52218;51.224;-2.328;2022-12-18T21:50:35;3.50;;;0.90;;
65073;SDS011;52218;51.224;-2.328;2022-12-18T21:54:17;2.55;;;0.85;;
65073;SDS011;52218;51.224;-2.328;2022-12-18T21:58:00;5.60;;;1.00;;
65073;SDS011;52218;51.224;-2.328;2022-12-18T22:01:42;3.13;;;0.80;;
65073;SDS011;52218;51.224;-2.328;2022-12-18T22:05:25;3.20;;;0.63;;
65073;SDS011;52218;51.224;-2.328;2022-12-18T22:09:08;1.17;;;0.50;;
65073;SDS011;52218;51.224;-2.328;2022-12-18T22:12:51;1.95;;;0.77;;
65073;SDS011;52218;51.224;-2.328;2022-12-18T22:16:35;2.15;;;0.63;;
65073;SDS011;52218;51.224;-2.328;2022-12-18T22:20:18;2.78;;;0.50;;
65073;SDS011;52218;51.224;-2.328;2022-12-18T22:24:01;3.10;;;0.80;;
65073;SDS011;52218;51.224;-2.328;2022-12-18T22:27:47;2.08;;;0.85;;
65073;SDS011;52218;51.224;-2.328;2022-12-18T22:31:48;2.17;;;0.63;;
65073;SDS011;52218;51.224;-2.328;2022-12-18T22:35:30;1.75;;;0.60;;
65073;SDS011;52218;51.224;-2.328;2022-12-18T22:39:16;2.70;;;0.70;;
65073;SDS011;52218;51.224;-2.328;2022-12-18T22:43:02;1.52;;;0.50;;
65073;SDS011;52218;51.224;-2.328;2022-12-18T22:46:46;4.00;;;0.80;;
65073;SDS011;52218;51.224;-2.328;2022-12-18T22:50:46;3.85;;;0.70;;
65073;SDS011;52218;51.224;-2.328;2022-12-18T22:54:31;1.50;;;0.50;;
65073;SDS011;52218;51.224;-2.328;2022-12-18T22:58:13;1.02;;;0.40;;
65073;SDS011;52218;51.224;-2.328;2022-12-18T23:01:55;2.13;;;0.50;;
65073;SDS011;52218;51.224;-2.328;2022-12-18T23:05:39;1.52;;;0.60;;
65073;SDS011;52218;51.224;-2.328;2022-12-18T23:09:21;1.27;;;0.30;;
65073;SDS011;52218;51.224;-2.328;2022-12-18T23:13:03;2.03;;;0.40;;
65073;SDS011;52218;51.224;-2.328;2022-12-18T23:16:45;0.77;;;0.30;;
65073;SDS011;52218;51.224;-2.328;2022-12-18T23:20:30;1.15;;;0.32;;
65073;SDS011;52218;51.224;-2.328;2022-12-18T23:24:12;1.00;;;0.30;;
65073;SDS011;52218;51.224;-2.328;2022-12-18T23:27:54;1.08;;;0.28;;
65073;SDS011;52218;51.224;-2.328;2022-12-18T23:31:36;0.52;;;0.17;;
65073;SDS011;52218;51.224;-2.328;2022-12-18T23:35:19;0.65;;;0.30;;
65073;SDS011;52218;51.224;-2.328;2022-12-18T23:39:01;0.75;;;0.20;;
65073;SDS011;52218;51.224;-2.328;2022-12-18T23:42:43;0.95;;;0.30;;
65073;SDS011;52218;51.224;-2.328;2022-12-18T23:46:26;0.93;;;0.30;;
65073;SDS011;52218;51.224;-2.328;2022-12-18T23:50:11;0.85;;;0.20;;
65073;SDS011;52218;51.224;-2.328;2022-12-18T23:53:54;1.02;;;0.38;;
65073;SDS011;52218;51.224;-2.328;2022-12-18T23:57:37;0.93;;;0.30;;
